»·PEaware :: DCM330 KLAS-KPSP

DCM330 :: KLAS-KPSP

FLIGHT INFORMATION

Flight Status: Arrived
Operator: Unknown
More flights by this operator :: More flights under this callsign
Pilot: Cole F. (14495)
Aircraft: ECLIPSE 500
(EA50)
More flights by this aircraft type
Origin: KLAS McCarran Intl
United States
Destination: KPSP Palm Springs Intl
United States
More flights between these airports :: More routes between these airports
Route: +BOACH8 TNP CLOWD SBONO1
File this flight plan on PilotEdge
Remarks:
Altitude:
(Current/Filed)
26,000ft
Speed:
(Current/Filed)
330kts
Departed: 09-Oct-17 05:10 PM
Arrived: 09-Oct-17 06:04 PM
Distance/Time
Traveled:
151nm/0:53
Distance/Time
To Go:
Arrived

Flight Plot

Page will automatically refresh every two minutes.

Flight plan parsing failed; only flown route is shown


Map Options




Map Legend


Flown Route
Filed Route
Departure Airport
Arrival Airport
Navaid (VOR, NDB)
Fix

Horizontal Profiles

Position Reports

Time Latitude Longitude Heading Altitude Ground
Speed
09-Oct-17 17:03 36.081252 -115.171340 89 2114ft 0kts
09-Oct-17 17:04 36.081252 -115.171340 89 2114ft 0kts
09-Oct-17 17:05 36.081252 -115.171340 89 2114ft 0kts
09-Oct-17 17:06 36.081252 -115.171340 89 2114ft 0kts
09-Oct-17 17:07 36.081252 -115.171340 89 2114ft 0kts
09-Oct-17 17:08 36.081252 -115.171340 89 2114ft 0kts
09-Oct-17 17:09 36.081252 -115.171340 89 2114ft 0kts
09-Oct-17 17:10 36.081480 -115.170490 81 2114ft 4kts
09-Oct-17 17:11 36.081073 -115.169490 196 2114ft 7kts
09-Oct-17 17:12 36.078639 -115.170867 204 2114ft 5kts
09-Oct-17 17:13 36.078022 -115.169957 89 2114ft 1kts
09-Oct-17 17:14 36.081085 -115.167089 25 2114ft 68kts
09-Oct-17 17:15 36.111861 -115.159206 328 3405ft 164kts
09-Oct-17 17:16 36.114414 -115.221053 265 5819ft 198kts
09-Oct-17 17:17 36.102097 -115.285990 212 8195ft 201kts
09-Oct-17 17:18 36.052508 -115.314038 199 8976ft 200kts
09-Oct-17 17:19 35.999998 -115.339867 198 9733ft 205kts
09-Oct-17 17:20 35.945415 -115.366719 200 10560ft 217kts
09-Oct-17 17:21 35.885253 -115.372284 161 12480ft 230kts
09-Oct-17 17:22 35.823969 -115.349507 162 14445ft 236kts
09-Oct-17 17:23 35.761127 -115.324865 165 16319ft 240kts
09-Oct-17 17:24 35.696981 -115.300839 166 17984ft 245kts
09-Oct-17 17:25 35.629326 -115.297015 185 19127ft 258kts
09-Oct-17 17:26 35.558827 -115.299389 185 19584ft 254kts
09-Oct-17 17:27 35.488672 -115.301916 185 21072ft 253kts
09-Oct-17 17:28 35.418388 -115.304645 186 22332ft 256kts
09-Oct-17 17:29 35.346828 -115.307506 186 23457ft 261kts
09-Oct-17 17:30 35.274103 -115.310426 186 24490ft 265kts
09-Oct-17 17:31 35.199909 -115.313411 186 25440ft 270kts
09-Oct-17 17:32 35.124204 -115.316477 186 25999ft 286kts
09-Oct-17 17:33 35.042358 -115.319857 186 26001ft 309kts
09-Oct-17 17:34 34.955421 -115.323226 186 26020ft 318kts
09-Oct-17 17:35 34.865345 -115.326758 185 25362ft 326kts
09-Oct-17 17:36 34.776994 -115.334942 201 24305ft 316kts
09-Oct-17 17:37 34.695248 -115.368968 203 23044ft 310kts
09-Oct-17 17:38 34.615074 -115.403550 203 21930ft 306kts
09-Oct-17 17:39 34.536018 -115.437955 203 20861ft 301kts
09-Oct-17 17:40 34.457521 -115.472147 203 19716ft 302kts
09-Oct-17 17:41 34.380908 -115.505455 202 18502ft 293kts
09-Oct-17 17:42 34.311039 -115.549020 224 17273ft 282kts
09-Oct-17 17:43 34.253320 -115.612042 225 16254ft 278kts
09-Oct-17 17:44 34.197079 -115.674671 224 15276ft 275kts
09-Oct-17 17:45 34.141470 -115.736923 224 14449ft 273kts
09-Oct-17 17:46 34.082336 -115.793250 216 13508ft 272kts
09-Oct-17 17:47 34.020377 -115.843967 215 12616ft 272kts
09-Oct-17 17:48 33.958657 -115.893997 215 11764ft 267kts
09-Oct-17 17:49 33.908214 -115.952297 261 11080ft 254kts
09-Oct-17 17:50 33.883739 -116.025382 199 10615ft 240kts
09-Oct-17 17:51 33.822737 -116.041124 191 8805ft 217kts
09-Oct-17 17:52 33.765512 -116.055928 191 7226ft 208kts
09-Oct-17 17:53 33.711763 -116.067902 191 5956ft 187kts
09-Oct-17 17:54 33.662430 -116.078485 191 4751ft 177kts
09-Oct-17 17:55 33.616135 -116.088326 191 3916ft 157kts
09-Oct-17 17:56 33.604380 -116.119771 301 3924ft 133kts
09-Oct-17 17:57 33.621657 -116.156297 301 3903ft 120kts
09-Oct-17 17:58 33.639373 -116.193660 301 3940ft 134kts
09-Oct-17 17:59 33.657918 -116.232638 301 3918ft 135kts
09-Oct-17 18:00 33.676635 -116.271298 303 3759ft 126kts
09-Oct-17 18:01 33.695513 -116.307912 303 3531ft 142kts
09-Oct-17 18:02 33.718088 -116.348686 303 3397ft 142kts
09-Oct-17 18:03 33.739366 -116.389607 303 3060ft 142kts
09-Oct-17 18:04 33.758358 -116.424804 303 2533ft 117kts
09-Oct-17 18:05 33.775737 -116.455688 309 1835ft 108kts
09-Oct-17 18:06 33.797925 -116.479490 323 1072ft 107kts
09-Oct-17 18:07 33.821435 -116.500265 322 458ft 99kts
09-Oct-17 18:08 33.832858 -116.510501 323 425ft 14kts
09-Oct-17 18:09 33.833054 -116.511798 214 425ft 0kts
09-Oct-17 18:10 33.832055 -116.511920 153 425ft 7kts
09-Oct-17 18:11 33.829264 -116.509435 143 425ft 9kts
09-Oct-17 18:12 33.828029 -116.509274 60 425ft 0kts

Navigation Log

Ident Type
Flight plan parsing failed, navigation log unavailable